Time;durP1;ratioP1;P1;durP2;ratioP2;P2;SDS_P1;SDS_P2;PMS_P1;PMS_P2;Temp;Humidity;BMP_temperature;BMP_pressure;BME280_temperature;BME280_humidity;BME280_pressure;Samples;Min_cycle;Max_cycle;Signal;HPM_P1;HPM_P2
2022/12/27 00:00:06;;;;;;;11.48;4.22;;;;;;;5.42;93.76;102048.00;5092812;28;20043;-50
2022/12/27 00:02:40;;;;;;;10.07;3.80;;;;;;;5.40;93.78;102052.78;5092034;28;20036;-51
2022/12/27 00:05:08;;;;;;;9.43;4.18;;;;;;;5.36;94.29;102046.09;5093701;28;20047;-48
2022/12/27 00:07:36;;;;;;;12.15;4.20;;;;;;;5.38;94.54;102049.44;5092988;28;20044;-49
2022/12/27 00:10:05;;;;;;;10.35;3.80;;;;;;;5.38;94.44;102057.56;5093630;28;20036;-51
2022/12/27 00:12:33;;;;;;;11.02;3.85;;;;;;;5.40;94.49;102060.06;5094257;28;20093;-50
2022/12/27 00:15:01;;;;;;;11.60;4.30;;;;;;;5.43;94.98;102063.19;5093707;28;20070;-50
2022/12/27 00:17:29;;;;;;;13.63;4.10;;;;;;;5.40;94.66;102062.75;5094171;28;20044;-48
2022/12/27 00:19:57;;;;;;;8.15;3.40;;;;;;;5.41;94.92;102059.88;5092399;28;20508;-51
2022/12/27 00:22:24;;;;;;;12.63;4.63;;;;;;;5.40;94.88;102063.59;5093378;28;20040;-48
2022/12/27 00:24:53;;;;;;;14.77;4.60;;;;;;;5.39;95.18;102067.34;5091967;28;20040;-48
2022/12/27 00:27:20;;;;;;;10.75;4.00;;;;;;;5.40;95.45;102074.41;5093666;28;20043;-48
2022/12/27 00:29:48;;;;;;;9.93;4.20;;;;;;;5.38;95.30;102068.38;5109363;28;20036;-48
2022/12/27 00:32:16;;;;;;;10.45;3.80;;;;;;;5.37;95.38;102068.59;5093817;28;20069;-47
2022/12/27 00:34:43;;;;;;;10.77;3.95;;;;;;;5.36;95.90;102077.72;5092111;28;20032;-48
2022/12/27 00:37:11;;;;;;;11.32;3.85;;;;;;;5.34;95.74;102075.22;5093275;28;20056;-48
2022/12/27 00:39:38;;;;;;;11.93;4.45;;;;;;;5.33;96.02;102078.94;5093131;28;20032;-50
2022/12/27 00:42:06;;;;;;;9.85;4.28;;;;;;;5.34;95.89;102083.34;5093107;28;20059;-48
2022/12/27 00:44:34;;;;;;;14.07;4.47;;;;;;;5.39;96.21;102086.25;5091925;28;20051;-50
2022/12/27 00:47:01;;;;;;;10.65;4.72;;;;;;;5.39;96.26;102088.09;5093011;28;20036;-50
2022/12/27 00:49:29;;;;;;;11.75;4.55;;;;;;;5.40;96.14;102084.38;5092993;28;20036;-49
2022/12/27 00:51:57;;;;;;;9.02;3.58;;;;;;;5.42;96.22;102093.97;5092259;28;20040;-47
2022/12/27 00:54:25;;;;;;;12.32;4.55;;;;;;;5.43;96.40;102100.19;5093236;28;20131;-50
2022/12/27 00:56:52;;;;;;;9.00;3.60;;;;;;;5.48;97.87;102093.16;5092161;28;20051;-48
2022/12/27 00:59:20;;;;;;;12.00;4.22;;;;;;;5.53;98.57;102100.63;5093232;28;20044;-49
2022/12/27 01:01:48;;;;;;;9.65;3.72;;;;;;;5.48;97.35;102098.56;5091308;28;20438;-48
2022/12/27 01:04:16;;;;;;;12.32;4.53;;;;;;;5.42;97.26;102098.53;5093672;28;20044;-48
2022/12/27 01:06:44;;;;;;;10.77;3.58;;;;;;;5.41;96.95;102091.44;5091786;28;20072;-51
2022/12/27 01:09:11;;;;;;;13.40;4.65;;;;;;;5.34;96.91;102103.09;5091155;28;20036;-47
2022/12/27 01:11:40;;;;;;;9.73;3.92;;;;;;;5.36;97.01;102093.94;5093298;28;20036;-48
2022/12/27 01:14:08;;;;;;;9.73;3.90;;;;;;;5.32;96.93;102096.22;5093823;28;20048;-49
2022/12/27 01:16:37;;;;;;;13.20;4.60;;;;;;;5.29;97.48;102099.28;5058549;28;20047;-48
2022/12/27 01:19:05;;;;;;;11.02;4.13;;;;;;;5.28;97.54;102095.75;5091635;28;20048;-47
2022/12/27 01:21:32;;;;;;;11.10;3.90;;;;;;;5.27;97.69;102098.69;5081725;28;20047;-46
2022/12/27 01:24:00;;;;;;;13.07;4.15;;;;;;;5.25;97.98;102098.06;5092417;28;20151;-46
2022/12/27 01:26:28;;;;;;;8.70;3.50;;;;;;;5.27;98.08;102090.59;5092563;28;20083;-46
2022/12/27 01:28:55;;;;;;;12.90;4.00;;;;;;;5.36;97.76;102097.44;5092551;28;20040;-45
2022/12/27 01:31:26;;;;;;;11.35;4.22;;;;;;;5.33;98.00;102100.56;5091185;28;20036;-46
2022/12/27 01:33:58;;;;;;;13.43;4.30;;;;;;;5.29;98.04;102115.50;5092052;28;20438;-48
2022/12/27 01:36:28;;;;;;;10.82;3.90;;;;;;;5.30;97.83;102114.50;5090711;28;20052;-48
2022/12/27 01:38:57;;;;;;;10.82;3.95;;;;;;;5.28;97.93;102114.69;5090160;28;20044;-49
2022/12/27 01:44:38;;;;;;;12.57;4.23;;;;;;;5.29;98.24;102120.91;5092957;28;20051;-49
2022/12/27 01:47:33;;;;;;;10.85;3.95;;;;;;;5.28;98.63;102132.78;5091691;28;20044;-47
2022/12/27 01:50:03;;;;;;;11.73;3.97;;;;;;;5.30;98.56;102123.44;5091164;28;20040;-48
2022/12/27 01:52:50;;;;;;;7.95;3.38;;;;;;;5.32;98.82;102121.38;5078945;28;20034;-49
2022/12/27 01:55:40;;;;;;;11.88;3.80;;;;;;;5.37;98.77;102128.88;5091593;28;20036;-48
2022/12/27 01:58:28;;;;;;;10.48;4.20;;;;;;;5.36;98.17;102138.00;5092913;28;20394;-49
2022/12/27 02:00:57;;;;;;;9.40;3.72;;;;;;;5.32;98.44;102147.56;5092480;28;20524;-49
2022/12/27 02:03:29;;;;;;;10.38;3.63;;;;;;;5.35;98.81;102147.16;5090990;28;20100;-48
2022/12/27 02:05:59;;;;;;;10.38;4.20;;;;;;;5.34;98.86;102146.31;5090170;28;20093;-52
2022/12/27 02:08:38;;;;;;;11.63;3.80;;;;;;;5.31;99.05;102145.88;5083745;28;20412;-50
2022/12/27 02:11:07;;;;;;;17.13;4.60;;;;;;;5.32;98.92;102147.56;5092091;28;20055;-46
2022/12/27 02:13:37;;;;;;;8.73;3.65;;;;;;;5.31;99.41;102156.69;5094455;28;20036;-47
2022/12/27 02:16:16;;;;;;;10.40;3.80;;;;;;;5.29;99.38;102156.03;5093421;28;20043;-47
2022/12/27 02:18:44;;;;;;;11.57;4.05;;;;;;;5.27;99.91;102155.44;5083045;28;20086;-50
2022/12/27 02:21:24;;;;;;;9.05;3.30;;;;;;;5.32;99.95;102147.56;5086264;28;20043;-51
2022/12/27 02:24:13;;;;;;;9.55;3.72;;;;;;;5.30;100.00;102155.03;5096632;28;20055;-51
2022/12/27 02:27:08;;;;;;;9.82;4.13;;;;;;;5.30;100.00;102155.03;5084677;28;20040;-47
2022/12/27 02:29:56;;;;;;;11.80;3.60;;;;;;;5.30;100.00;102155.84;5095805;28;20040;-48
2022/12/27 02:32:35;;;;;;;11.32;3.70;;;;;;;5.32;100.00;102153.78;5095009;28;20513;-49
2022/12/27 02:35:27;;;;;;;15.77;4.90;;;;;;;5.31;100.00;102156.69;5094241;28;20044;-48
2022/12/27 02:38:24;;;;;;;10.27;3.92;;;;;;;5.30;100.00;102157.72;5095217;28;20047;-49
2022/12/27 02:53:08;;;;;;;12.27;4.13;;;;;;;5.26;100.00;102173.50;5090031;28;20048;-52
2022/12/27 02:57:07;;;;;;;10.02;3.50;;;;;;;5.28;100.00;102174.13;5083840;28;20047;-49
2022/12/27 02:58:47;;;;;;;10.00;3.50;;;;;;;5.28;100.00;102170.59;5094206;28;20040;-49
2022/12/27 03:04:22;;;;;;;9.60;3.85;;;;;;;5.29;100.00;102165.00;5085688;28;20456;-47
2022/12/27 03:07:16;;;;;;;10.45;3.78;;;;;;;5.23;100.00;102159.56;5066479;28;20119;-51
2022/12/27 03:15:54;;;;;;;11.40;3.85;;;;;;;5.19;100.00;102153.72;5093139;28;20075;-51
2022/12/27 03:18:50;;;;;;;11.95;4.05;;;;;;;5.25;100.00;102162.91;5088709;28;20046;-47
2022/12/27 03:27:18;;;;;;;11.23;4.00;;;;;;;5.20;100.00;102174.31;5089374;28;20479;-50
2022/12/27 03:33:25;;;;;;;11.48;4.03;;;;;;;5.19;100.00;102190.72;5093637;28;20475;-53
2022/12/27 03:35:42;;;;;;;11.10;3.53;;;;;;;5.19;100.00;102186.13;5084631;28;20060;-49
2022/12/27 03:38:13;;;;;;;13.93;4.38;;;;;;;5.20;100.00;102178.88;5093320;28;20481;-50
2022/12/27 03:43:44;;;;;;;10.07;3.80;;;;;;;5.19;100.00;102180.72;5093011;28;20040;-51
2022/12/27 03:46:34;;;;;;;11.07;3.60;;;;;;;5.20;100.00;102193.22;5093436;28;20054;-49
2022/12/27 03:49:08;;;;;;;13.10;4.22;;;;;;;5.18;100.00;102195.28;5097453;28;20098;-51
2022/12/27 03:51:40;;;;;;;13.75;3.90;;;;;;;5.15;100.00;102192.97;5094414;28;20052;-50
2022/12/27 03:54:25;;;;;;;10.57;3.45;;;;;;;5.15;100.00;102201.09;5076291;28;20040;-51
2022/12/27 03:57:01;;;;;;;10.45;3.85;;;;;;;5.15;100.00;102194.81;5093088;28;20039;-50
2022/12/27 03:59:29;;;;;;;11.65;3.40;;;;;;;5.16;100.00;102191.09;5094122;28;20048;-49
2022/12/27 04:01:57;;;;;;;11.60;3.60;;;;;;;5.12;100.00;102191.50;5092808;28;20044;-49
2022/12/27 04:04:25;;;;;;;10.93;3.70;;;;;;;5.16;100.00;102197.34;5093249;28;20153;-47
2022/12/27 04:06:52;;;;;;;10.65;3.35;;;;;;;5.12;100.00;102202.31;5071994;28;20043;-48
2022/12/27 04:37:01;;;;;;;12.50;3.70;;;;;;;5.08;100.00;102219.94;5080614;28;20072;-51
2022/12/27 04:39:29;;;;;;;12.82;4.28;;;;;;;5.08;100.00;102219.94;5091632;28;20061;-50
2022/12/27 04:56:06;;;;;;;10.18;3.70;;;;;;;5.09;100.00;102216.19;5093234;28;20046;-49
2022/12/27 04:58:34;;;;;;;12.20;4.05;;;;;;;5.07;100.00;102210.16;5091642;28;20055;-48
2022/12/27 05:03:51;;;;;;;14.05;3.67;;;;;;;5.06;100.00;102210.38;5093112;28;20513;-47
2022/12/27 05:06:19;;;;;;;10.32;3.58;;;;;;;5.03;100.00;102227.81;5093033;28;20044;-49
2022/12/27 05:14:24;;;;;;;10.07;3.38;;;;;;;5.02;100.00;102234.22;5059448;28;20044;-49
2022/12/27 05:16:51;;;;;;;10.30;3.40;;;;;;;5.02;100.00;102244.19;5092331;28;20051;-50
2022/12/27 05:19:19;;;;;;;11.80;3.60;;;;;;;4.99;100.00;102245.44;5091455;28;20043;-49
2022/12/27 05:27:32;;;;;;;11.57;3.20;;;;;;;4.99;100.00;102234.63;5092760;28;20051;-52
2022/12/27 05:30:01;;;;;;;9.38;3.50;;;;;;;5.01;100.00;102243.38;5089521;28;20048;-48
2022/12/27 05:32:28;;;;;;;11.35;3.45;;;;;;;5.01;100.00;102240.69;5092677;28;20085;-51
2022/12/27 05:34:56;;;;;;;8.13;3.10;;;;;;;5.02;100.00;102247.72;5058660;28;20040;-48
2022/12/27 05:37:23;;;;;;;13.95;3.88;;;;;;;5.02;100.00;102250.44;5092895;28;20050;-48
2022/12/27 05:39:51;;;;;;;11.48;3.15;;;;;;;5.04;100.00;102261.06;5092604;28;20386;-50
2022/12/27 05:42:19;;;;;;;10.90;3.47;;;;;;;5.01;100.00;102264.16;5092259;28;20140;-49
2022/12/27 05:44:46;;;;;;;14.05;3.65;;;;;;;5.00;100.00;102260.59;5092561;28;20047;-48
2022/12/27 05:47:14;;;;;;;11.27;3.50;;;;;;;5.00;100.00;102268.69;5092352;28;20534;-51
2022/12/27 05:49:41;;;;;;;11.18;3.40;;;;;;;5.01;100.00;102264.97;5094992;28;20383;-47
2022/12/27 05:52:09;;;;;;;10.77;4.10;;;;;;;5.00;100.00;102274.09;5096739;28;20051;-49
2022/12/27 05:54:37;;;;;;;10.63;3.90;;;;;;;5.00;100.00;102274.09;5096259;28;20040;-48
2022/12/27 05:57:04;;;;;;;9.57;3.40;;;;;;;4.99;100.00;102283.25;5096532;28;20044;-50
2022/12/27 05:59:32;;;;;;;10.73;3.17;;;;;;;5.05;100.00;102277.09;5096667;28;20051;-49
2022/12/27 06:02:00;;;;;;;10.93;3.75;;;;;;;5.03;100.00;102276.44;5096421;28;20478;-51
2022/12/27 06:04:28;;;;;;;13.90;3.50;;;;;;;5.06;100.00;102275.22;5096514;28;20101;-50
2022/12/27 06:06:55;;;;;;;11.20;3.80;;;;;;;5.04;100.00;102277.25;5095142;28;20036;-49
2022/12/27 06:09:23;;;;;;;9.43;3.42;;;;;;;5.01;100.00;102274.97;5096090;28;20435;-51
2022/12/27 06:11:51;;;;;;;9.30;3.15;;;;;;;5.01;100.00;102281.19;5096260;28;20048;-49
2022/12/27 06:14:19;;;;;;;8.85;3.50;;;;;;;5.05;100.00;102277.09;5094991;28;20040;-50
2022/12/27 06:16:46;;;;;;;10.30;3.58;;;;;;;5.05;100.00;102282.47;5095845;28;20048;-54
2022/12/27 06:19:14;;;;;;;8.88;2.90;;;;;;;5.04;100.00;102280.78;5095486;28;20559;-51
2022/12/27 06:21:42;;;;;;;9.48;3.45;;;;;;;5.01;100.00;102281.19;5095475;28;20048;-55
2022/12/27 06:24:09;;;;;;;9.60;3.40;;;;;;;5.00;100.00;102284.06;5095679;28;20048;-54
2022/12/27 06:26:37;;;;;;;11.32;3.70;;;;;;;4.98;100.00;102278.03;5095448;28;20036;-55
2022/12/27 06:29:04;;;;;;;10.23;3.38;;;;;;;4.99;100.00;102280.53;5094493;28;20047;-51
2022/12/27 06:31:32;;;;;;;7.20;2.90;;;;;;;4.96;100.00;102280.94;5094079;28;20036;-51
2022/12/27 06:33:59;;;;;;;9.68;3.20;;;;;;;4.95;100.00;102281.97;5095758;28;20093;-52
2022/12/27 06:36:29;;;;;;;11.73;3.78;;;;;;;4.95;100.00;102276.56;5093370;28;20060;-51
2022/12/27 06:38:57;;;;;;;7.40;3.22;;;;;;;4.97;100.00;102279.91;5095287;28;20044;-49
2022/12/27 06:41:26;;;;;;;9.35;3.55;;;;;;;4.99;100.00;102288.66;5094162;28;20383;-52
2022/12/27 06:43:55;;;;;;;8.80;3.20;;;;;;;5.03;100.00;102281.00;5095075;28;20032;-50
2022/12/27 06:46:23;;;;;;;9.95;3.50;;;;;;;5.05;100.00;102285.19;5093685;28;20048;-52
2022/12/27 06:48:51;;;;;;;10.57;3.75;;;;;;;5.04;100.00;102296.16;5094029;28;20502;-51
2022/12/27 06:51:20;;;;;;;13.90;4.22;;;;;;;4.99;100.00;102304.84;5094955;28;20037;-49
2022/12/27 06:53:48;;;;;;;11.85;4.15;;;;;;;4.99;100.00;102304.84;5094186;28;20047;-51
2022/12/27 06:56:18;;;;;;;9.70;3.75;;;;;;;5.03;100.00;102316.13;5094631;28;20048;-50
2022/12/27 06:58:47;;;;;;;7.93;3.20;;;;;;;5.06;100.00;102305.75;5081702;28;20040;-48
2022/12/27 07:01:17;;;;;;;12.35;4.45;;;;;;;5.05;100.00;102309.50;5093746;28;20056;-49
2022/12/27 07:03:53;;;;;;;11.73;4.32;;;;;;;4.97;100.00;102315.00;5095018;28;20032;-52
2022/12/27 07:06:23;;;;;;;9.98;3.65;;;;;;;4.96;100.00;102309.81;5095305;28;20036;-51
2022/12/27 07:08:51;;;;;;;11.25;4.10;;;;;;;4.91;100.00;102308.53;5094311;28;20162;-50
2022/12/27 07:11:20;;;;;;;9.68;3.55;;;;;;;4.92;100.00;102309.38;5093713;28;20048;-52
2022/12/27 07:13:50;;;;;;;9.85;4.20;;;;;;;4.88;100.00;102314.34;5093851;28;20048;-53
2022/12/27 07:16:20;;;;;;;13.98;4.30;;;;;;;4.86;100.00;102312.84;5094995;28;20040;-52
2022/12/27 07:18:48;;;;;;;11.77;4.00;;;;;;;4.86;100.00;102310.16;5091720;28;20044;-54
2022/12/27 07:21:22;;;;;;;10.50;3.88;;;;;;;4.78;100.00;102318.38;5087525;28;20044;-52
2022/12/27 07:23:50;;;;;;;11.98;4.45;;;;;;;4.73;100.00;102326.22;5086749;28;20113;-53
2022/12/27 07:26:20;;;;;;;11.32;4.28;;;;;;;4.66;100.00;102331.53;5089770;28;20044;-53
2022/12/27 07:28:48;;;;;;;11.23;3.92;;;;;;;4.61;100.00;102332.09;5093392;28;20437;-56
2022/12/27 07:31:19;;;;;;;11.07;4.20;;;;;;;4.57;100.00;102333.53;5094461;28;20044;-54
2022/12/27 07:33:47;;;;;;;11.95;3.80;;;;;;;4.64;100.00;102336.28;5092504;28;20131;-52
2022/12/27 07:36:20;;;;;;;7.22;2.90;;;;;;;4.69;100.00;102342.81;5093434;28;20052;-54
2022/12/27 07:38:51;;;;;;;9.15;3.50;;;;;;;4.77;100.00;102343.72;5093881;28;20051;-54
2022/12/27 07:41:18;;;;;;;13.30;4.05;;;;;;;4.76;100.00;102342.00;5092794;28;20044;-52
2022/12/27 07:43:46;;;;;;;8.32;3.45;;;;;;;4.87;100.00;102338.81;5093072;28;20048;-54
2022/12/27 07:46:19;;;;;;;9.23;3.63;;;;;;;4.81;100.00;102337.72;5093842;28;20489;-52
2022/12/27 07:48:47;;;;;;;13.32;3.78;;;;;;;4.77;100.00;102343.72;5092729;28;20040;-53
2022/12/27 07:51:16;;;;;;;13.30;4.00;;;;;;;4.75;100.00;102351.16;5092613;28;20048;-54
2022/12/27 07:53:46;;;;;;;9.48;3.50;;;;;;;4.72;100.00;102352.38;5059777;28;20123;-53
2022/12/27 07:56:18;;;;;;;8.98;3.17;;;;;;;4.73;100.00;102342.41;5093828;28;20509;-56
2022/12/27 07:58:53;;;;;;;10.60;3.72;;;;;;;4.74;100.00;102344.94;5094038;28;20044;-52
2022/12/27 08:01:23;;;;;;;13.65;4.13;;;;;;;4.74;100.00;102354.88;5087742;28;20524;-53
2022/12/27 08:03:51;;;;;;;17.55;4.80;;;;;;;4.64;100.00;102350.63;5087117;28;20044;-52
2022/12/27 08:06:30;;;;;;;11.07;4.53;;;;;;;4.61;100.00;102356.41;5092291;28;20068;-54
2022/12/27 08:09:00;;;;;;;11.10;3.83;;;;;;;4.59;100.00;102363.00;5092597;28;20449;-52
2022/12/27 08:11:28;;;;;;;12.68;3.92;;;;;;;4.55;100.00;102367.97;5089095;28;20101;-51
2022/12/27 08:13:56;;;;;;;12.10;3.85;;;;;;;4.58;100.00;102366.75;5093913;28;20040;-51
2022/12/27 08:16:25;;;;;;;9.43;3.90;;;;;;;4.67;100.00;102371.03;5093786;28;20044;-50
2022/12/27 08:18:53;;;;;;;9.52;3.67;;;;;;;4.75;100.00;102379.00;5089240;28;20075;-51
2022/12/27 08:21:21;;;;;;;9.15;3.30;;;;;;;4.80;100.00;102376.56;5091291;28;20040;-53
2022/12/27 08:23:49;;;;;;;14.18;4.03;;;;;;;4.80;100.00;102375.72;5093743;28;20544;-49
2022/12/27 08:26:16;;;;;;;11.95;3.90;;;;;;;4.79;100.00;102379.47;5074348;28;20560;-50
2022/12/27 08:28:44;;;;;;;8.38;3.25;;;;;;;4.83;100.00;102380.72;5090773;28;20043;-50
2022/12/27 08:31:14;;;;;;;11.55;3.95;;;;;;;4.88;100.00;102378.28;5092062;28;20055;-49
2022/12/27 08:33:41;;;;;;;10.20;4.47;;;;;;;4.83;100.00;102375.31;5092400;28;20040;-53
2022/12/27 08:36:11;;;;;;;8.65;3.85;;;;;;;4.83;100.00;102378.03;5095616;28;20059;-51
2022/12/27 08:38:59;;;;;;;9.35;3.53;;;;;;;4.83;100.00;102380.72;5095017;28;20165;-50
2022/12/27 08:41:27;;;;;;;8.30;3.53;;;;;;;4.80;100.00;102381.94;5092457;28;20043;-51
2022/12/27 08:43:54;;;;;;;9.75;3.72;;;;;;;4.81;100.00;102389.03;5090829;28;20029;-48
2022/12/27 08:46:22;;;;;;;10.82;4.32;;;;;;;4.83;100.00;102386.97;5091328;28;20063;-50
2022/12/27 08:48:50;;;;;;;10.38;3.80;;;;;;;4.98;100.00;102384.22;5092394;28;20071;-49
2022/12/27 08:51:18;;;;;;;10.32;3.78;;;;;;;4.93;100.00;102389.38;5085465;28;20040;-50
2022/12/27 08:53:59;;;;;;;10.32;3.20;;;;;;;5.00;100.00;102387.56;5092418;28;20050;-51
2022/12/27 08:56:27;;;;;;;11.05;3.70;;;;;;;4.99;100.00;102385.88;5092875;28;20044;-48
2022/12/27 08:58:54;;;;;;;11.48;3.60;;;;;;;4.99;100.00;102377.78;5093149;28;20046;-50
2022/12/27 09:01:24;;;;;;;9.10;3.55;;;;;;;5.00;100.00;102382.16;5091161;28;20040;-50
2022/12/27 09:03:52;;;;;;;7.57;3.20;;;;;;;5.01;100.00;102378.44;5092017;28;20036;-50
2022/12/27 09:06:22;;;;;;;8.80;3.10;;;;;;;5.05;100.00;102379.72;5093093;28;20521;-51
2022/12/27 09:08:50;;;;;;;11.73;3.53;;;;;;;5.05;100.00;102379.72;5091600;28;20571;-48
2022/12/27 09:11:24;;;;;;;10.88;3.90;;;;;;;5.01;100.00;102372.19;5103943;28;20052;-53
2022/12/27 09:13:52;;;;;;;13.05;3.85;;;;;;;5.02;100.00;102372.00;5092280;28;20089;-48
2022/12/27 09:16:22;;;;;;;15.85;5.00;;;;;;;5.06;100.00;102365.19;5093307;28;20044;-48
2022/12/27 09:18:52;;;;;;;14.77;4.47;;;;;;;5.06;100.00;102376.00;5093605;28;20055;-53
2022/12/27 09:21:21;;;;;;;14.32;4.47;;;;;;;5.02;100.00;102374.69;5093381;28;20119;-53
2022/12/27 09:23:50;;;;;;;18.70;5.30;;;;;;;5.11;100.00;102384.34;5080377;28;20048;-50
2022/12/27 09:26:24;;;;;;;15.93;4.55;;;;;;;5.20;100.00;102378.84;5097522;28;20133;-49
2022/12/27 09:28:52;;;;;;;11.07;4.35;;;;;;;5.10;100.00;102382.69;5096718;28;20044;-48
2022/12/27 09:31:21;;;;;;;11.20;4.03;;;;;;;5.17;100.00;102390.88;5097020;28;20062;-48
2022/12/27 09:33:49;;;;;;;13.90;4.13;;;;;;;5.12;100.00;102391.44;5093554;28;20134;-47
2022/12/27 09:36:22;;;;;;;11.13;4.03;;;;;;;5.07;100.00;102387.63;5096470;28;20482;-51
2022/12/27 09:38:53;;;;;;;9.45;3.42;;;;;;;5.08;100.00;102389.31;5096834;28;20115;-52
2022/12/27 09:41:30;;;;;;;15.80;5.28;;;;;;;5.22;100.00;102392.97;5096297;28;20113;-50
2022/12/27 09:44:17;;;;;;;13.82;5.05;;;;;;;5.30;100.00;102390.97;5096104;28;20546;-49
2022/12/27 09:47:11;;;;;;;32.70;9.15;;;;;;;5.33;100.00;102389.75;5096620;28;20040;-52
2022/12/27 09:49:44;;;;;;;51.00;13.30;;;;;;;5.34;100.00;102399.53;5095903;28;20040;-50
2022/12/27 09:52:22;;;;;;;21.38;6.20;;;;;;;5.33;100.00;102397.84;5095592;28;20048;-54
2022/12/27 09:54:52;;;;;;;34.63;10.57;;;;;;;5.38;100.00;102392.69;5075580;28;20093;-51
2022/12/27 09:57:27;;;;;;;11.85;4.20;;;;;;;5.30;100.00;102400.94;5095087;28;20032;-51
2022/12/27 09:59:58;;;;;;;13.80;4.90;;;;;;;5.28;100.00;102403.00;5094235;28;20449;-50
2022/12/27 10:02:27;;;;;;;14.20;5.20;;;;;;;5.25;100.00;102411.50;5098299;28;20036;-48
2022/12/27 10:04:56;;;;;;;17.25;5.25;;;;;;;5.27;100.00;102407.59;5073507;28;20040;-49
2022/12/27 10:08:11;;;;;;;33.67;8.57;;;;;;;5.39;100.00;102398.94;5084530;28;20036;-49
2022/12/27 10:10:41;;;;;;;13.70;4.75;;;;;;;5.35;100.00;102406.59;5096161;28;20398;-51
2022/12/27 10:13:42;;;;;;;12.30;4.30;;;;;;;5.29;100.00;102407.38;5094924;28;20043;-53
2022/12/27 10:16:22;;;;;;;22.33;6.13;;;;;;;5.31;100.00;102405.31;5083595;28;20502;-51
2022/12/27 10:19:23;;;;;;;13.63;4.47;;;;;;;5.37;100.00;102404.56;5096060;28;20044;-50
2022/12/27 10:21:57;;;;;;;10.15;4.03;;;;;;;5.41;100.00;102404.97;5071114;28;20065;-47
2022/12/27 10:24:43;;;;;;;17.15;4.70;;;;;;;5.43;100.00;102411.88;5058766;28;20105;-51
2022/12/27 10:27:14;;;;;;;14.43;4.45;;;;;;;5.54;100.00;102408.66;5098033;28;20040;-48
2022/12/27 10:29:42;;;;;;;16.10;4.38;;;;;;;5.86;100.00;102400.97;5094968;28;20086;-49
2022/12/27 10:32:13;;;;;;;11.73;3.95;;;;;;;5.89;100.00;102406.00;5094013;28;20052;-50
2022/12/27 10:34:40;;;;;;;16.05;4.50;;;;;;;5.82;100.00;102401.56;5092910;28;20133;-49
2022/12/27 10:37:17;;;;;;;21.58;5.75;;;;;;;6.14;100.00;102400.16;5093461;28;20063;-50
2022/12/27 10:39:44;;;;;;;18.23;4.80;;;;;;;5.92;100.00;102407.47;5095675;28;20036;-48
2022/12/27 10:42:38;;;;;;;14.88;4.40;;;;;;;5.84;100.00;102419.25;5095184;28;20039;-50
2022/12/27 10:45:28;;;;;;;17.10;5.50;;;;;;;5.90;100.00;102410.38;5084514;28;20397;-51
2022/12/27 10:47:58;;;;;;;13.07;3.85;;;;;;;5.83;100.00;102403.25;5076020;28;20040;-49
2022/12/27 10:50:28;;;;;;;15.52;4.15;;;;;;;5.69;100.00;102410.41;5094108;28;20120;-49
2022/12/27 10:52:56;;;;;;;10.73;4.03;;;;;;;5.63;100.00;102409.34;5095811;28;20439;-49
2022/12/27 10:55:34;;;;;;;13.20;4.18;;;;;;;5.65;100.00;102406.44;5094814;28;20040;-49
2022/12/27 10:58:24;;;;;;;11.88;4.18;;;;;;;5.66;100.00;102410.81;5098499;28;20413;-48
2022/12/27 11:00:55;;;;;;;10.73;4.25;;;;;;;5.67;100.00;102415.19;5094386;28;20659;-52
2022/12/27 11:03:25;;;;;;;11.50;3.78;;;;;;;5.67;100.00;102405.19;5094502;28;20070;-49
2022/12/27 11:06:01;;;;;;;12.63;4.45;;;;;;;5.69;100.00;102396.91;5095552;28;20093;-49
2022/12/27 11:08:29;;;;;;;12.77;4.00;;;;;;;5.71;100.00;102401.09;5093606;28;20490;-46
2022/12/27 11:11:11;;;;;;;14.73;4.68;;;;;;;5.81;100.00;102384.50;5093892;28;20466;-49
2022/12/27 11:13:39;;;;;;;22.08;8.02;;;;;;;5.91;100.00;102390.38;5093541;28;20062;-51
2022/12/27 11:16:17;;;;;;;19.40;6.85;;;;;;;6.10;100.00;102377.22;5093490;28;20054;-50
2022/12/27 11:18:49;;;;;;;16.67;5.47;;;;;;;6.02;100.00;102375.53;5076891;28;20469;-48
2022/12/27 11:21:17;;;;;;;10.30;4.10;;;;;;;5.95;100.00;102380.88;5094778;28;20048;-50
2022/12/27 11:23:57;;;;;;;11.48;4.00;;;;;;;5.89;100.00;102384.38;5091427;28;20717;-49
2022/12/27 11:26:39;;;;;;;31.35;11.75;;;;;;;5.96;100.00;102385.28;5091410;28;20038;-49
2022/12/27 11:29:16;;;;;;;33.53;11.88;;;;;;;6.02;100.00;102380.09;5109371;28;20039;-48
2022/12/27 11:31:47;;;;;;;25.50;8.23;;;;;;;5.97;100.00;102384.22;5093497;28;20059;-48
2022/12/27 11:34:17;;;;;;;21.80;8.13;;;;;;;6.05;100.00;102385.09;5094246;28;20048;-49
2022/12/27 11:36:50;;;;;;;22.60;8.35;;;;;;;6.14;100.00;102383.91;5095218;28;20067;-49
2022/12/27 11:39:37;;;;;;;14.48;5.03;;;;;;;6.00;100.00;102382.16;5094919;28;20567;-50
2022/12/27 11:42:13;;;;;;;16.67;6.22;;;;;;;6.03;100.00;102384.47;5083990;28;20093;-53
2022/12/27 11:44:45;;;;;;;19.05;7.53;;;;;;;5.96;100.00;102377.16;5085557;28;20475;-51
2022/12/27 11:47:32;;;;;;;13.75;5.90;;;;;;;5.95;100.00;102380.88;5093973;28;20490;-56
2022/12/27 11:50:17;;;;;;;22.60;7.50;;;;;;;6.01;100.00;102378.41;5094451;28;20040;-49
2022/12/27 11:53:05;;;;;;;14.02;6.15;;;;;;;6.02;100.00;102363.88;5092997;28;20510;-49
2022/12/27 11:55:39;;;;;;;21.83;7.70;;;;;;;6.01;100.00;102359.47;5093629;28;20044;-50
2022/12/27 11:58:21;;;;;;;18.42;6.60;;;;;;;6.11;100.00;102365.34;5078581;28;20054;-50
2022/12/27 12:01:02;;;;;;;34.05;11.68;;;;;;;6.25;100.00;102353.56;5094384;28;20040;-51
2022/12/27 12:03:57;;;;;;;16.88;6.22;;;;;;;6.22;100.00;102359.38;5091430;28;20449;-51
2022/12/27 12:06:49;;;;;;;13.95;5.28;;;;;;;6.06;100.00;102355.16;5100601;28;20044;-49
2022/12/27 12:09:26;;;;;;;19.30;7.53;;;;;;;6.09;100.00;102351.22;5071174;28;20491;-53
2022/12/27 12:12:13;;;;;;;15.38;6.07;;;;;;;6.08;100.00;102346.81;5090171;28;20470;-49
2022/12/27 12:15:00;;;;;;;14.70;5.82;;;;;;;6.03;100.00;102341.16;5089897;28;20040;-49
2022/12/27 12:17:36;;;;;;;15.52;6.10;;;;;;;6.11;100.00;102341.84;5092025;28;20561;-49
2022/12/27 12:20:35;;;;;;;14.70;5.30;;;;;;;6.12;100.00;102343.50;5093933;28;20054;-50
2022/12/27 12:23:26;;;;;;;19.45;7.22;;;;;;;6.35;100.00;102336.94;5093572;28;20044;-50
2022/12/27 12:26:04;;;;;;;17.25;6.78;;;;;;;6.49;100.00;102335.94;5092754;28;20044;-51
2022/12/27 12:28:56;;;;;;;18.52;6.35;;;;;;;6.50;100.00;102328.69;5093047;28;20050;-50
2022/12/27 12:31:35;;;;;;;18.30;6.63;;;;;;;6.53;100.00;102334.50;5092652;28;20051;-50
2022/12/27 12:34:40;;;;;;;14.25;5.40;;;;;;;6.39;100.00;102330.91;5093638;28;20044;-48
2022/12/27 12:37:23;;;;;;;15.30;5.40;;;;;;;6.34;100.00;102330.69;5092969;28;20063;-50
2022/12/27 12:40:06;;;;;;;14.63;6.32;;;;;;;6.37;100.00;102326.75;5092444;28;20329;-49
2022/12/27 12:43:12;;;;;;;14.15;5.32;;;;;;;6.34;100.00;102322.56;5092271;28;20051;-50
2022/12/27 12:46:19;;;;;;;22.98;7.65;;;;;;;6.50;100.00;102312.44;5081342;28;20044;-51
2022/12/27 12:49:01;;;;;;;30.25;10.85;;;;;;;6.75;100.00;102312.69;5079363;28;20115;-52
2022/12/27 12:52:08;;;;;;;23.08;7.75;;;;;;;6.74;100.00;102305.63;5094087;28;20044;-50
2022/12/27 12:54:39;;;;;;;19.35;6.32;;;;;;;6.77;100.00;102302.47;5080133;28;20040;-52
2022/12/27 12:57:28;;;;;;;11.13;4.45;;;;;;;6.57;100.00;102302.44;5093260;28;20052;-47
2022/12/27 13:00:37;;;;;;;9.30;3.67;;;;;;;6.44;100.00;102299.69;5092883;28;20044;-49
2022/12/27 13:03:23;;;;;;;10.40;4.32;;;;;;;6.55;100.00;102301.81;5078519;28;20397;-48
2022/12/27 13:06:00;;;;;;;9.82;3.50;;;;;;;6.31;100.00;102287.78;5089853;28;20132;-49
2022/12/27 13:08:40;;;;;;;10.75;3.83;;;;;;;6.27;100.00;102285.69;5093065;28;20040;-51
2022/12/27 13:11:24;;;;;;;8.07;3.63;;;;;;;6.21;100.00;102281.94;5092891;28;20040;-48
2022/12/27 13:13:54;;;;;;;8.77;3.47;;;;;;;6.24;100.00;102276.13;5092371;28;20044;-51
2022/12/27 13:16:51;;;;;;;9.80;4.20;;;;;;;6.42;100.00;102274.69;5080433;28;20040;-50
2022/12/27 13:19:24;;;;;;;16.52;5.28;;;;;;;6.65;100.00;102264.34;5091534;28;20044;-47
2022/12/27 13:22:28;;;;;;;14.40;5.13;;;;;;;6.72;100.00;102257.06;5093263;28;20411;-51